createdAt,value
2018-11-22T00:00:19.885Z,26.77
2018-11-22T00:02:50.146Z,23.00
2018-11-22T00:05:18.720Z,27.23
2018-11-22T00:07:48.587Z,24.27
2018-11-22T00:10:17.182Z,23.03
2018-11-22T00:12:45.808Z,22.97
2018-11-22T00:15:15.392Z,25.00
2018-11-22T00:17:44.586Z,24.53
2018-11-22T00:20:13.258Z,24.10
2018-11-22T00:22:41.888Z,21.33
2018-11-22T00:25:12.755Z,25.77
2018-11-22T00:27:41.100Z,27.60
2018-11-22T00:30:18.141Z,25.43
2018-11-22T00:32:46.800Z,21.03
2018-11-22T00:35:16.309Z,22.67
2018-11-22T00:37:45.892Z,23.57
2018-11-22T00:40:19.227Z,20.70
2018-11-22T00:42:48.488Z,26.07
2018-11-22T00:45:18.634Z,25.27
2018-11-22T00:47:47.275Z,24.17
2018-11-22T00:50:18.844Z,22.57
2018-11-22T00:52:47.673Z,22.23
2018-11-22T00:55:18.010Z,22.53
2018-11-22T00:57:47.480Z,20.37
2018-11-22T01:00:26.538Z,22.43
2018-11-22T01:02:55.228Z,21.70
2018-11-22T01:05:24.846Z,22.30
2018-11-22T01:07:53.684Z,21.90
2018-11-22T01:10:23.973Z,25.13
2018-11-22T01:12:56.713Z,22.07
2018-11-22T01:15:25.428Z,20.83
2018-11-22T01:17:54.043Z,20.47
2018-11-22T01:20:23.969Z,22.20
2018-11-22T01:22:53.891Z,22.87
2018-11-22T01:25:22.869Z,20.80
2018-11-22T01:27:51.439Z,23.57
2018-11-22T01:30:21.319Z,20.40
2018-11-22T01:32:51.038Z,19.63
2018-11-22T01:35:20.691Z,25.97
2018-11-22T01:37:49.427Z,22.83
2018-11-22T01:40:19.245Z,19.67
2018-11-22T01:42:47.972Z,25.47
2018-11-22T01:45:18.233Z,24.13
2018-11-22T01:47:46.939Z,32.47
2018-11-22T01:50:16.611Z,21.40
2018-11-22T01:52:45.379Z,22.10
2018-11-22T01:55:15.487Z,19.00
2018-11-22T01:57:44.787Z,19.73
2018-11-22T02:00:15.861Z,21.37
2018-11-22T02:02:44.512Z,19.17
2018-11-22T02:05:17.293Z,20.30
2018-11-22T02:07:45.944Z,18.50
2018-11-22T02:10:15.903Z,19.40
2018-11-22T02:12:44.587Z,18.90
2018-11-22T02:15:14.467Z,16.70
2018-11-22T02:17:43.067Z,18.07
2018-11-22T02:20:14.044Z,18.70
2018-11-22T02:22:42.976Z,18.00
2018-11-22T02:25:12.934Z,17.03
2018-11-22T02:27:42.140Z,14.97
2018-11-22T02:30:12.824Z,20.90
2018-11-22T02:32:41.433Z,15.67
2018-11-22T02:35:10.988Z,18.93
2018-11-22T02:37:39.882Z,15.93
2018-11-22T02:40:11.044Z,16.93
2018-11-22T02:42:40.270Z,16.23
2018-11-22T02:45:10.784Z,15.40
2018-11-22T02:47:42.000Z,14.17
2018-11-22T02:50:19.362Z,17.10
2018-11-22T02:52:48.384Z,13.97
2018-11-22T02:55:16.900Z,15.23
2018-11-22T02:57:45.655Z,16.03
2018-11-22T03:00:34.906Z,14.33
2018-11-22T03:03:03.678Z,14.80
2018-11-22T03:05:32.400Z,14.90
2018-11-22T03:08:01.053Z,14.73
2018-11-22T03:10:29.677Z,14.43
2018-11-22T03:12:58.361Z,13.63
2018-11-22T03:15:26.923Z,17.57
2018-11-22T03:17:55.617Z,13.63
2018-11-22T03:20:24.209Z,14.43
2018-11-22T03:22:55.093Z,14.97
2018-11-22T03:25:21.945Z,13.03
2018-11-22T03:27:51.257Z,14.40
2018-11-22T03:30:21.023Z,12.83
2018-11-22T03:32:49.635Z,15.37
2018-11-22T03:35:19.858Z,13.57
2018-11-22T03:37:49.467Z,14.87
2018-11-22T03:40:22.091Z,13.13
2018-11-22T03:42:50.687Z,13.70
2018-11-22T03:45:19.845Z,12.20
2018-11-22T03:47:48.438Z,15.17
2018-11-22T03:50:19.049Z,12.77
2018-11-22T03:52:48.777Z,14.57
2018-11-22T03:55:18.114Z,14.27
2018-11-22T03:57:47.186Z,12.13
2018-11-22T04:00:17.835Z,11.50
2018-11-22T04:02:47.001Z,16.23
2018-11-22T04:05:19.801Z,13.77
2018-11-22T04:07:48.444Z,11.47
2018-11-22T04:10:18.629Z,13.80
2018-11-22T04:12:47.227Z,12.20
2018-11-22T04:15:16.360Z,12.27
2018-11-22T04:17:47.770Z,14.20
2018-11-22T04:20:17.943Z,12.20
2018-11-22T04:22:49.007Z,13.83
2018-11-22T04:25:18.211Z,11.03
2018-11-22T04:27:47.073Z,11.53
2018-11-22T04:30:18.603Z,12.13
2018-11-22T04:32:47.894Z,13.50
2018-11-22T04:35:17.641Z,13.20
2018-11-22T04:37:46.248Z,14.40
2018-11-22T04:40:19.207Z,11.93
2018-11-22T04:42:48.298Z,12.37
2018-11-22T04:45:17.022Z,11.53
2018-11-22T04:47:46.328Z,11.97
2018-11-22T04:50:16.427Z,12.53
2018-11-22T04:52:45.035Z,13.87
2018-11-22T04:55:13.656Z,13.23
2018-11-22T04:57:42.270Z,11.67
2018-11-22T05:00:18.204Z,15.10
2018-11-22T05:02:45.205Z,14.23
2018-11-22T05:05:16.338Z,11.13
2018-11-22T05:07:45.274Z,12.03
2018-11-22T05:10:15.824Z,15.47
2018-11-22T05:12:44.791Z,11.37
2018-11-22T05:15:14.818Z,13.03
2018-11-22T05:17:43.978Z,14.07
2018-11-22T05:20:13.911Z,11.60
2018-11-22T05:22:43.552Z,13.03
2018-11-22T05:25:12.789Z,11.60
2018-11-22T05:27:41.496Z,12.10
2018-11-22T05:30:12.533Z,13.83
2018-11-22T05:32:41.307Z,12.53
2018-11-22T05:35:11.002Z,11.10
2018-11-22T05:37:39.544Z,12.73
2018-11-22T05:40:10.692Z,11.13
2018-11-22T05:42:39.261Z,13.07
2018-11-22T05:45:10.040Z,12.03
2018-11-22T05:47:38.854Z,11.70
2018-11-22T05:50:09.156Z,13.03
2018-11-22T05:52:37.741Z,14.10
2018-11-22T05:55:07.770Z,12.27
2018-11-22T05:57:36.510Z,14.03
2018-11-22T06:00:09.268Z,13.90
2018-11-22T06:02:37.913Z,13.77
2018-11-22T06:05:07.591Z,12.57
2018-11-22T06:07:36.233Z,13.13
2018-11-22T06:10:07.760Z,13.97
2018-11-22T06:12:36.547Z,15.77
2018-11-22T06:15:05.727Z,14.33
2018-11-22T06:17:34.462Z,13.90
2018-11-22T06:20:03.098Z,16.43
2018-11-22T06:22:33.956Z,13.53
2018-11-22T12:16:56.986Z,18.67
2018-11-22T12:19:25.640Z,17.40
2018-11-22T12:21:54.232Z,19.60
2018-11-22T12:24:22.833Z,17.67
2018-11-22T12:26:51.478Z,22.83
2018-11-22T12:29:20.071Z,22.70
2018-11-22T12:31:48.740Z,22.77
2018-11-22T12:34:23.970Z,20.30
2018-11-22T12:36:56.561Z,20.27
2018-11-22T12:39:25.188Z,24.37
2018-11-22T12:41:53.889Z,24.67
2018-11-22T12:44:22.638Z,21.47
2018-11-22T12:46:51.297Z,18.87
2018-11-22T12:49:19.891Z,24.50
2018-11-22T12:51:48.510Z,20.73
2018-11-22T12:54:17.095Z,21.27
2018-11-22T12:56:45.683Z,20.37
2018-11-22T12:59:14.332Z,20.67
2018-11-22T13:01:42.964Z,24.37
2018-11-22T13:04:11.572Z,23.93
2018-11-22T13:06:40.227Z,23.07
2018-11-22T13:09:09.215Z,27.43
2018-11-22T13:11:37.953Z,21.63
2018-11-22T13:14:06.594Z,22.27
2018-11-22T13:16:35.248Z,20.37
2018-11-22T13:19:03.870Z,20.47
2018-11-22T13:21:32.552Z,21.60
2018-11-22T13:24:01.174Z,20.03
2018-11-22T13:26:29.785Z,22.00
2018-11-22T13:28:58.432Z,20.43
2018-11-22T13:31:27.039Z,21.23
2018-11-22T13:33:55.746Z,20.60
2018-11-22T13:36:24.406Z,25.17
2018-11-22T13:38:53.002Z,29.00
2018-11-22T13:41:21.617Z,20.13
2018-11-22T13:43:50.384Z,23.10
2018-11-22T13:46:19.072Z,23.77
2018-11-22T13:48:47.714Z,23.10
2018-11-22T13:51:16.396Z,23.40
2018-11-22T13:53:44.986Z,20.93
2018-11-22T13:56:13.578Z,27.90
2018-11-22T13:58:42.239Z,23.67
2018-11-22T14:01:10.851Z,24.77
2018-11-22T14:03:39.488Z,24.53
2018-11-22T14:06:08.977Z,27.43
2018-11-22T14:08:37.606Z,25.40
2018-11-22T14:11:13.403Z,24.87
2018-11-22T14:13:35.115Z,25.37
2018-11-22T14:16:03.987Z,23.23
2018-11-22T14:18:32.620Z,30.97
2018-11-22T14:21:01.299Z,26.93
2018-11-22T14:23:30.043Z,26.37
2018-11-22T14:25:58.687Z,25.37
2018-11-22T14:28:27.329Z,30.50
2018-11-22T14:30:55.947Z,30.07
2018-11-22T14:33:24.588Z,29.13
2018-11-22T14:35:53.259Z,30.13
2018-11-22T14:38:21.845Z,35.47
2018-11-22T14:40:50.448Z,27.47
2018-11-22T14:43:19.115Z,29.73
2018-11-22T14:45:47.932Z,32.17
2018-11-22T14:48:16.547Z,28.97
2018-11-22T14:50:52.861Z,27.30
2018-11-22T14:53:22.517Z,35.27
2018-11-22T14:55:51.159Z,26.20
2018-11-22T14:58:19.792Z,32.70
2018-11-22T15:00:48.403Z,34.23
2018-11-22T15:03:17.034Z,33.07
2018-11-22T15:05:45.697Z,30.10
2018-11-22T15:08:14.379Z,33.10
2018-11-22T15:10:43.191Z,30.60
2018-11-22T15:13:11.869Z,36.93
2018-11-22T15:15:40.480Z,37.83
2018-11-22T15:18:09.093Z,53.73
2018-11-22T15:20:37.725Z,40.43
2018-11-22T15:23:06.483Z,46.10
2018-11-22T15:25:35.099Z,37.87
2018-11-22T15:28:03.809Z,31.43
2018-11-22T15:30:32.464Z,31.97
2018-11-22T15:33:01.095Z,34.40
2018-11-22T15:35:30.997Z,31.33
2018-11-22T15:37:59.445Z,35.17
2018-11-22T15:40:28.193Z,34.60
2018-11-22T15:42:59.067Z,32.27
2018-11-22T15:45:34.755Z,32.17
2018-11-22T15:47:57.263Z,31.93
2018-11-22T15:50:27.044Z,35.97
2018-11-22T15:52:56.656Z,38.00
2018-11-22T15:55:25.885Z,37.17
2018-11-22T15:57:56.281Z,35.93
2018-11-22T16:00:28.314Z,34.87
2018-11-22T16:02:57.568Z,36.97
2018-11-22T16:05:27.017Z,35.63
2018-11-22T16:07:55.711Z,36.63
2018-11-22T16:10:26.724Z,35.67
2018-11-22T16:12:56.144Z,37.03
2018-11-22T16:15:30.605Z,38.07
2018-11-22T16:17:59.302Z,38.07
2018-11-22T16:20:27.940Z,39.87
2018-11-22T16:22:56.988Z,46.37
2018-11-22T16:25:25.653Z,41.63
2018-11-22T16:27:54.347Z,45.85
2018-11-22T16:30:25.172Z,41.43
2018-11-22T16:32:54.043Z,42.40
2018-11-22T16:35:23.587Z,35.07
2018-11-22T16:37:53.222Z,38.83
2018-11-22T16:40:23.258Z,44.73
2018-11-22T16:42:53.203Z,44.07
2018-11-22T16:45:38.643Z,43.77
2018-11-22T16:48:19.656Z,44.97
2018-11-22T16:50:48.319Z,43.47
2018-11-22T16:53:16.977Z,39.33
2018-11-22T16:55:46.023Z,43.57
2018-11-22T16:58:14.785Z,46.43
2018-11-22T17:00:43.567Z,46.73
2018-11-22T17:03:13.623Z,41.07
2018-11-22T17:05:43.011Z,42.87
2018-11-22T17:08:11.756Z,47.80
2018-11-22T17:10:40.978Z,44.40
2018-11-22T17:13:09.692Z,49.60
2018-11-22T17:15:39.830Z,43.97
2018-11-22T17:18:09.617Z,47.13
2018-11-22T17:20:38.470Z,44.90
2018-11-22T17:23:07.797Z,43.47
2018-11-22T17:25:38.379Z,48.63
2018-11-22T17:28:08.533Z,47.43
2018-11-22T17:30:39.119Z,45.20
2018-11-22T17:33:07.874Z,50.53
2018-11-22T17:35:36.956Z,52.57
2018-11-22T17:38:07.507Z,56.50
2018-11-22T17:40:39.762Z,51.13
2018-11-22T17:43:08.664Z,49.27
2018-11-22T17:45:39.909Z,51.70
2018-11-22T17:48:09.150Z,50.17
2018-11-22T17:50:39.937Z,44.93
2018-11-22T17:53:09.561Z,51.70
2018-11-22T17:55:38.253Z,57.47
2018-11-22T17:58:07.651Z,118.77
2018-11-22T18:00:38.651Z,63.90
2018-11-22T18:03:07.920Z,59.17
2018-11-22T18:05:37.733Z,57.97
2018-11-22T18:08:06.503Z,61.87
2018-11-22T18:10:37.933Z,69.10
2018-11-22T18:13:06.721Z,55.73
2018-11-22T18:16:05.811Z,56.57
2018-11-22T18:18:34.531Z,57.93
2018-11-22T18:21:03.938Z,54.27
2018-11-22T18:23:32.661Z,57.03
2018-11-22T18:26:01.478Z,62.07
2018-11-22T18:28:30.168Z,53.40
2018-11-22T18:30:58.878Z,55.70
2018-11-22T18:33:27.854Z,55.27
2018-11-22T18:35:56.540Z,63.60
2018-11-22T18:38:26.942Z,59.07
2018-11-22T18:40:55.681Z,54.93
2018-11-22T18:43:24.371Z,53.27
2018-11-22T18:45:53.069Z,54.67
2018-11-22T18:48:22.123Z,56.60
2018-11-22T18:50:52.151Z,51.00
2018-11-22T18:53:20.844Z,52.63
2018-11-22T18:55:49.621Z,58.27
2018-11-22T18:58:18.333Z,60.00
2018-11-22T19:00:47.472Z,53.70
2018-11-22T19:03:17.788Z,53.60
2018-11-22T19:05:47.429Z,51.33
2018-11-22T19:08:16.502Z,53.00
2018-11-22T19:10:45.625Z,51.57
2018-11-22T19:13:14.761Z,53.93
2018-11-22T19:15:45.622Z,50.10
2018-11-22T19:18:14.724Z,53.23
2018-11-22T19:20:44.372Z,49.90
2018-11-22T19:23:13.740Z,53.93
2018-11-22T19:25:42.417Z,51.77
2018-11-22T19:28:11.364Z,50.23
2018-11-22T19:30:41.811Z,50.10
2018-11-22T19:33:12.132Z,52.30
2018-11-22T19:35:43.192Z,49.23
2018-11-22T19:38:12.008Z,52.33
2018-11-22T19:40:41.468Z,56.83
2018-11-22T19:43:10.771Z,49.20
2018-11-22T19:45:42.395Z,53.80
2018-11-22T19:48:11.138Z,49.90
2018-11-22T19:50:39.953Z,57.97
2018-11-22T19:53:10.214Z,56.00
2018-11-22T19:55:40.116Z,58.63
2018-11-22T19:58:10.476Z,52.97
2018-11-22T20:00:39.197Z,51.40
2018-11-22T20:03:08.484Z,53.07
2018-11-22T20:05:38.880Z,57.77
2018-11-22T20:08:10.387Z,54.47
2018-11-22T20:10:44.498Z,50.23
2018-11-22T20:13:13.296Z,56.40
2018-11-22T20:15:42.005Z,50.27
2018-11-22T20:18:11.450Z,51.73
2018-11-22T20:20:40.175Z,52.30
2018-11-22T20:23:08.912Z,63.80
2018-11-22T20:25:37.726Z,60.63
2018-11-22T20:28:06.519Z,54.17
2018-11-22T20:30:37.605Z,51.87
2018-11-22T20:33:06.549Z,61.93
2018-11-22T20:35:39.739Z,68.53
2018-11-22T20:38:08.655Z,55.77
2018-11-22T20:40:37.411Z,59.13
2018-11-22T20:43:06.412Z,61.23
2018-11-22T20:45:40.722Z,56.00
2018-11-22T20:48:06.239Z,49.30
2018-11-22T20:50:35.631Z,57.10
2018-11-22T20:53:05.267Z,53.17
2018-11-22T20:55:36.403Z,53.07
2018-11-22T20:58:07.245Z,53.73
2018-11-22T21:00:37.612Z,51.20
2018-11-22T21:03:07.166Z,54.70
2018-11-22T21:05:35.869Z,53.07
2018-11-22T21:08:04.643Z,56.67
2018-11-22T21:10:34.023Z,53.33
2018-11-22T21:13:06.882Z,51.70
2018-11-22T21:15:36.339Z,68.07
2018-11-22T21:18:06.634Z,56.77
2018-11-22T21:20:37.351Z,58.73
2018-11-22T21:23:07.583Z,56.23
2018-11-22T21:25:37.715Z,52.23
2018-11-22T21:28:07.500Z,54.93
2018-11-22T21:30:37.667Z,45.37
2018-11-22T21:33:07.116Z,50.77
2018-11-22T21:35:36.459Z,53.77
2018-11-22T21:38:06.524Z,51.63
2018-11-22T21:40:36.529Z,63.02
2018-11-22T21:45:40.339Z,54.30
2018-11-22T21:48:09.009Z,54.00
2018-11-22T21:50:39.007Z,54.60
2018-11-22T21:53:09.093Z,51.57
2018-11-22T21:55:38.127Z,52.67
2018-11-22T21:58:07.880Z,50.33
2018-11-22T22:00:38.620Z,47.97
2018-11-22T22:03:08.743Z,50.43
2018-11-22T22:05:42.296Z,50.30
2018-11-22T22:08:11.232Z,60.63
2018-11-22T22:10:41.313Z,61.43
2018-11-22T22:13:10.965Z,53.10
2018-11-22T22:15:41.552Z,54.90
2018-11-22T22:18:12.743Z,60.83
2018-11-22T22:20:42.397Z,47.90
2018-11-22T22:23:13.608Z,57.90
2018-11-22T22:25:43.121Z,58.53
2018-11-22T22:28:15.364Z,60.97
2018-11-22T22:30:47.146Z,57.67
2018-11-22T22:33:17.482Z,59.50
2018-11-22T22:35:47.028Z,55.23
2018-11-22T22:38:17.138Z,59.13
2018-11-22T22:40:53.408Z,54.43
2018-11-22T22:43:22.242Z,47.63
2018-11-22T22:45:51.729Z,57.53
2018-11-22T22:48:21.704Z,55.17
2018-11-22T22:50:51.112Z,56.60
2018-11-22T22:53:21.069Z,67.53
2018-11-22T22:55:51.705Z,63.30
2018-11-22T22:58:20.607Z,62.07
2018-11-22T23:00:53.905Z,64.80
2018-11-22T23:03:23.525Z,62.40
2018-11-22T23:05:52.427Z,75.30
2018-11-22T23:08:21.366Z,67.93
2018-11-22T23:10:50.317Z,64.07
2018-11-22T23:13:19.158Z,106.80
2018-11-22T23:15:49.839Z,78.83
2018-11-22T23:18:19.736Z,73.60
2018-11-22T23:20:49.015Z,81.57
2018-11-22T23:23:17.830Z,72.20
2018-11-22T23:25:49.263Z,76.10
2018-11-22T23:28:26.821Z,79.83
2018-11-22T23:30:57.522Z,84.17
2018-11-22T23:33:27.185Z,77.87
2018-11-22T23:35:56.109Z,76.90
2018-11-22T23:38:25.523Z,81.60
2018-11-22T23:40:55.220Z,80.43
2018-11-22T23:43:24.284Z,85.50
2018-11-22T23:45:54.423Z,77.47
2018-11-22T23:48:23.394Z,83.33
2018-11-22T23:50:52.317Z,86.93
2018-11-22T23:53:22.817Z,84.47
2018-11-22T23:55:52.993Z,75.20
2018-11-22T23:58:25.646Z,78.27
